Time;durP1;ratioP1;P1;durP2;ratioP2;P2;SDS_P1;SDS_P2;PMS_P1;PMS_P2;Temp;Humidity;BMP_temperature;BMP_pressure;BME280_temperature;BME280_humidity;BME280_pressure;Samples;Min_cycle;Max_cycle;Signal;HPM_P1;HPM_P2
2022/09/22 00:01:49;;;;;;;5.67;5.17;;;;;;;8.38;100.00;102200.81;4880862;29;20132;-76
2022/09/22 00:04:14;;;;;;;5.50;4.07;;;;;;;8.27;100.00;102197.19;4864470;29;20409;-76
2022/09/22 00:06:46;;;;;;;3.73;3.43;;;;;;;8.49;100.00;102209.78;4863654;29;20055;-78
2022/09/22 00:09:16;;;;;;;4.00;3.20;;;;;;;8.47;100.00;102198.41;4880777;29;20041;-77
2022/09/22 00:11:48;;;;;;;3.47;3.10;;;;;;;8.57;100.00;102210.03;4880032;29;20489;-78
2022/09/22 00:14:20;;;;;;;2.90;2.60;;;;;;;8.63;100.00;102217.53;4880344;29;20573;-76
2022/09/22 00:16:48;;;;;;;3.63;2.93;;;;;;;8.68;100.00;102207.44;4880098;29;20159;-76
2022/09/22 00:19:17;;;;;;;4.20;3.30;;;;;;;8.73;100.00;102204.44;4863470;29;20051;-77
2022/09/22 00:21:43;;;;;;;3.80;3.40;;;;;;;8.72;100.00;102198.28;4880176;29;20540;-78
2022/09/22 00:24:09;;;;;;;3.47;3.17;;;;;;;8.75;100.00;102200.72;4880250;29;20196;-76
2022/09/22 00:26:59;;;;;;;3.80;3.33;;;;;;;8.72;100.00;102198.28;4867148;29;20064;-76
2022/09/22 00:29:27;;;;;;;3.03;2.77;;;;;;;8.69;100.00;102190.56;4879821;29;20086;-76
2022/09/22 00:31:53;;;;;;;3.22;2.63;;;;;;;8.79;100.00;102196.84;4879296;29;20044;-76
2022/09/22 00:34:22;;;;;;;3.37;2.97;;;;;;;8.79;100.00;102191.53;4862630;29;20041;-76
2022/09/22 00:36:48;;;;;;;;;;;;;;;8.86;100.00;102200.72;4880045;29;20108;-78
2022/09/22 00:39:15;;;;;;;3.67;2.90;;;;;;;8.53;100.00;102151.00;4879694;29;19964;-78
2022/09/22 00:41:43;;;;;;;7.87;3.13;;;;;;;8.67;100.00;102177.38;4879764;29;20132;-76
2022/09/22 00:44:28;;;;;;;3.45;2.63;;;;;;;8.87;100.00;102207.75;4879795;29;20096;-77
2022/09/22 00:47:18;;;;;;;4.03;2.23;;;;;;;8.88;100.00;102204.13;4879531;29;20238;-76
2022/09/22 00:50:07;;;;;;;3.93;2.57;;;;;;;8.77;100.00;102180.19;4879746;29;20045;-76
2022/09/22 00:52:42;;;;;;;2.43;2.23;;;;;;;8.88;99.38;102197.97;4879637;29;20473;-76
2022/09/22 00:55:44;;;;;;;2.73;2.00;;;;;;;8.91;99.38;102197.72;4863102;29;20037;-77
2022/09/22 00:58:20;;;;;;;2.87;2.43;;;;;;;8.92;99.32;102194.94;4876983;29;20067;-76
2022/09/22 01:00:45;;;;;;;2.60;2.40;;;;;;;8.90;98.42;102190.72;4879788;29;20037;-77
2022/09/22 01:03:15;;;;;;;2.60;2.40;;;;;;;8.88;98.60;102193.50;4879601;29;20048;-77
2022/09/22 01:05:44;;;;;;;3.93;2.40;;;;;;;8.89;97.83;102189.88;4879688;29;20049;-76
2022/09/22 01:08:12;;;;;;;3.47;2.35;;;;;;;8.83;97.57;102178.88;4879455;29;20048;-76
2022/09/22 01:10:38;;;;;;;3.90;2.15;;;;;;;8.95;97.80;102196.53;4863133;29;20041;-76
2022/09/22 01:13:23;;;;;;;3.60;2.40;;;;;;;8.92;97.67;102192.28;4879340;29;20035;-79
2022/09/22 01:16:11;;;;;;;4.17;1.83;;;;;;;8.87;97.32;102191.78;4847540;29;20457;-76
2022/09/22 01:19:01;;;;;;;1.80;1.55;;;;;;;8.86;97.70;102198.06;4879020;29;20401;-78
2022/09/22 01:21:36;;;;;;;2.57;1.90;;;;;;;8.79;97.68;102199.50;4862718;29;20037;-76
2022/09/22 01:24:20;;;;;;;3.13;2.33;;;;;;;8.72;97.79;102198.28;4879250;29;20044;-77
2022/09/22 01:27:15;;;;;;;2.10;1.90;;;;;;;8.60;98.01;102199.19;4879000;29;20052;-75
2022/09/22 01:30:08;;;;;;;3.10;2.07;;;;;;;8.56;98.48;102197.72;4858079;29;20141;-75
2022/09/22 01:32:46;;;;;;;2.40;2.20;;;;;;;8.47;99.20;102199.28;4879108;29;20037;-77
2022/09/22 01:35:36;;;;;;;3.57;2.43;;;;;;;8.42;99.18;102205.88;4878818;29;20157;-76
2022/09/22 01:38:52;;;;;;;2.83;1.93;;;;;;;8.36;100.00;102200.03;4879233;29;20041;-76
2022/09/22 01:41:33;;;;;;;2.47;1.83;;;;;;;8.25;100.00;102186.69;4847180;29;20094;-77
2022/09/22 01:44:24;;;;;;;5.87;2.00;;;;;;;8.23;100.00;102193.06;4878845;29;20048;-75
2022/09/22 01:46:54;;;;;;;2.90;2.07;;;;;;;8.12;100.00;102177.94;4879150;29;20540;-76
2022/09/22 01:49:23;;;;;;;2.23;2.03;;;;;;;7.98;100.00;102167.47;4878932;29;20045;-76
2022/09/22 01:51:54;;;;;;;2.63;1.90;;;;;;;8.08;100.00;102195.03;4878796;29;20041;-77
2022/09/22 01:54:27;;;;;;;2.70;2.00;;;;;;;8.01;100.00;102175.22;4862407;29;20033;-77
2022/09/22 01:57:02;;;;;;;1.77;1.60;;;;;;;8.09;100.00;102196.72;4878898;29;20521;-77
2022/09/22 01:59:30;;;;;;;2.20;2.00;;;;;;;8.01;100.00;102181.38;4879680;29;20062;-75
2022/09/22 02:02:03;;;;;;;2.53;1.90;;;;;;;8.07;100.00;102193.34;4864204;29;20083;-75
2022/09/22 02:04:44;;;;;;;4.13;2.67;;;;;;;8.04;100.00;102190.91;4894206;29;20532;-75
2022/09/22 02:07:14;;;;;;;4.47;2.30;;;;;;;8.03;100.00;102191.88;4878408;29;20060;-74
2022/09/22 02:09:41;;;;;;;2.83;2.53;;;;;;;8.01;100.00;102191.13;4894894;29;20048;-73
2022/09/22 02:12:07;;;;;;;2.33;2.10;;;;;;;8.01;100.00;102191.13;4892278;29;20501;-75
2022/09/22 02:14:32;;;;;;;4.40;2.30;;;;;;;8.00;100.00;102189.44;4887283;29;20052;-76
2022/09/22 02:16:59;;;;;;;2.60;2.40;;;;;;;7.97;100.00;102184.34;4895702;29;20117;-76
2022/09/22 02:19:33;;;;;;;2.33;1.90;;;;;;;7.99;100.00;102193.06;4897789;29;20037;-76
2022/09/22 02:21:59;;;;;;;2.77;2.40;;;;;;;7.98;100.00;102194.84;4901606;29;20028;-76
2022/09/22 02:24:31;;;;;;;4.30;2.47;;;;;;;7.96;100.00;102188.81;4901991;29;20081;-77
2022/09/22 02:27:00;;;;;;;2.80;2.60;;;;;;;8.01;100.00;102197.28;4882171;29;20166;-71
2022/09/22 02:29:30;;;;;;;3.77;2.67;;;;;;;7.98;100.00;102191.34;4881598;29;20044;-76
2022/09/22 02:31:58;;;;;;;4.40;2.73;;;;;;;7.99;100.00;102198.34;4862247;29;20056;-76
2022/09/22 02:34:23;;;;;;;3.93;2.30;;;;;;;8.00;100.00;102190.28;4861957;29;20041;-76
2022/09/22 02:37:10;;;;;;;5.10;2.43;;;;;;;8.01;100.00;102197.28;4878497;29;20512;-78
2022/09/22 02:40:03;;;;;;;2.93;2.43;;;;;;;7.92;100.00;102191.81;4878430;29;20075;-75
2022/09/22 02:42:40;;;;;;;4.43;2.97;;;;;;;7.94;100.00;102188.09;4873121;29;20045;-77
2022/09/22 02:45:14;;;;;;;2.53;2.33;;;;;;;7.96;100.00;102196.78;4878274;29;20068;-76
2022/09/22 02:47:50;;;;;;;3.00;2.50;;;;;;;7.90;100.00;102193.72;4878362;29;20037;-77
2022/09/22 02:50:20;;;;;;;3.17;2.87;;;;;;;7.92;100.00;102191.81;4878321;29;20048;-77
2022/09/22 02:52:45;;;;;;;3.17;2.80;;;;;;;7.91;100.00;102198.06;4861738;29;20033;-75
2022/09/22 02:55:12;;;;;;;3.03;2.70;;;;;;;7.95;100.00;102194.25;4878513;29;20032;-79
2022/09/22 02:57:38;;;;;;;3.27;2.87;;;;;;;7.94;100.00;102184.59;4881660;29;20037;-76
2022/09/22 03:00:04;;;;;;;3.50;2.77;;;;;;;7.99;100.00;102198.34;4881789;29;20096;-75
2022/09/22 03:02:30;;;;;;;3.00;2.70;;;;;;;8.10;100.00;102198.44;4881427;29;20037;-74
2022/09/22 03:04:56;;;;;;;3.87;2.70;;;;;;;8.13;100.00;102195.56;4881820;29;20559;-75
2022/09/22 03:07:22;;;;;;;3.43;2.30;;;;;;;8.14;100.00;102191.94;4881490;29;20051;-76
2022/09/22 03:09:48;;;;;;;3.03;2.37;;;;;;;8.17;100.00;102199.69;4881699;29;20128;-76
2022/09/22 03:12:13;;;;;;;5.57;2.70;;;;;;;8.20;100.00;102198.63;4881471;29;20045;-76
2022/09/22 03:14:39;;;;;;;3.00;2.33;;;;;;;8.25;100.00;102204.44;4881256;29;20041;-77
2022/09/22 03:17:05;;;;;;;3.10;2.57;;;;;;;8.23;99.53;102199.22;4880837;29;20060;-75
2022/09/22 03:19:32;;;;;;;2.97;2.40;;;;;;;8.31;99.94;102203.97;4881548;29;20045;-76
2022/09/22 03:21:58;;;;;;;3.00;2.47;;;;;;;8.31;98.82;102203.97;4883749;29;20584;-76
2022/09/22 03:24:23;;;;;;;2.60;2.17;;;;;;;8.30;98.79;102197.81;4902976;29;20124;-77
2022/09/22 03:26:49;;;;;;;2.47;2.27;;;;;;;8.34;98.12;102199.31;4903692;29;20051;-76
2022/09/22 03:29:16;;;;;;;2.50;2.30;;;;;;;8.38;97.92;102203.47;4898835;29;20045;-76
2022/09/22 03:31:41;;;;;;;3.33;2.50;;;;;;;8.37;98.00;102203.53;4883042;29;20381;-75
2022/09/22 03:34:07;;;;;;;2.87;2.30;;;;;;;8.37;97.69;102201.75;4882004;29;20064;-76
2022/09/22 03:36:32;;;;;;;2.60;1.93;;;;;;;8.44;98.10;102214.59;4881541;29;20408;-76
2022/09/22 03:38:58;;;;;;;2.93;2.63;;;;;;;8.41;97.62;102188.25;4881126;29;20043;-76
2022/09/22 03:41:24;;;;;;;3.03;2.57;;;;;;;8.47;97.09;102209.03;4880907;29;20041;-78
2022/09/22 03:43:50;;;;;;;2.40;2.20;;;;;;;8.32;97.01;102182.63;4880799;29;20041;-78
2022/09/22 03:46:15;;;;;;;2.23;2.00;;;;;;;8.43;96.95;102200.47;4880595;29;20037;-77
2022/09/22 03:48:41;;;;;;;3.50;1.90;;;;;;;8.49;97.34;102202.66;4864108;29;20044;-79
2022/09/22 03:51:06;;;;;;;2.30;2.00;;;;;;;8.50;97.58;102204.34;4880973;29;20432;-78
2022/09/22 03:53:32;;;;;;;2.60;2.33;;;;;;;8.47;97.35;102201.94;4880596;29;20519;-76
2022/09/22 03:56:13;;;;;;;3.43;2.33;;;;;;;8.50;97.48;102204.34;4864257;29;20061;-77
2022/09/22 03:58:39;;;;;;;3.40;2.10;;;;;;;8.50;97.29;102204.34;4880575;29;20033;-77
2022/09/22 04:01:07;;;;;;;3.43;2.53;;;;;;;8.29;97.77;102160.78;4863761;29;20033;-77
2022/09/22 04:03:33;;;;;;;3.10;2.27;;;;;;;8.51;97.97;102200.72;4863809;29;20045;-79
2022/09/22 04:05:59;;;;;;;5.07;2.60;;;;;;;8.54;97.99;102203.16;4880731;29;20304;-77
2022/09/22 04:08:25;;;;;;;2.40;2.17;;;;;;;8.55;98.39;102196.88;4880154;29;20519;-76
2022/09/22 04:10:51;;;;;;;3.20;2.03;;;;;;;8.49;97.75;102185.88;4863794;29;20064;-78
2022/09/22 04:13:16;;;;;;;2.53;2.30;;;;;;;8.62;98.23;102205.22;4880326;29;20041;-76
2022/09/22 04:15:44;;;;;;;2.47;1.90;;;;;;;8.65;98.18;102202.34;4880191;29;20041;-77
2022/09/22 04:18:53;;;;;;;2.80;2.47;;;;;;;8.72;97.94;102213.38;5069765;28;20731;-77
2022/09/22 04:21:19;;;;;;;4.20;2.47;;;;;;;8.72;97.47;102208.91;5069518;28;20041;-79
2022/09/22 04:23:44;;;;;;;2.30;2.10;;;;;;;8.73;98.09;102204.44;5068222;28;20377;-78
2022/09/22 04:26:10;;;;;;;2.30;2.10;;;;;;;8.76;97.96;102213.03;5069858;28;20119;-79
2022/09/22 04:28:35;;;;;;;3.60;2.40;;;;;;;8.81;98.09;102218.00;5070611;28;20033;-78
2022/09/22 04:31:01;;;;;;;3.53;2.50;;;;;;;8.82;97.65;102209.91;5069213;28;20496;-77
2022/09/22 04:33:42;;;;;;;4.50;3.60;;;;;;;8.89;97.01;102212.94;5076869;28;20009;-76
2022/09/22 04:36:08;;;;;;;4.83;3.40;;;;;;;8.87;96.50;102207.75;5076892;28;20068;-77
2022/09/22 04:38:37;;;;;;;4.03;2.63;;;;;;;8.87;96.43;102210.41;5093615;28;20120;-80
2022/09/22 04:43:42;;;;;;;5.20;2.63;;;;;;;9.04;96.09;102218.91;3125200;26;20080;-75
2022/09/22 04:46:12;;;;;;;5.63;2.70;;;;;;;9.07;95.90;102219.50;5032914;28;20038;-79
2022/09/22 04:48:38;;;;;;;5.73;3.30;;;;;;;9.08;95.19;102215.03;5031565;28;20412;-76
2022/09/22 04:51:03;;;;;;;4.20;2.87;;;;;;;9.15;95.33;102216.25;5030834;28;20037;-77
2022/09/22 04:53:29;;;;;;;4.03;3.20;;;;;;;9.19;95.58;102217.72;5030330;28;20038;-77
2022/09/22 04:55:55;;;;;;;4.20;3.03;;;;;;;9.24;95.07;102212.88;5036802;28;20033;-78
2022/09/22 04:58:20;;;;;;;5.80;3.30;;;;;;;9.27;95.10;102212.69;5046405;28;20037;-78
2022/09/22 05:00:46;;;;;;;3.43;2.73;;;;;;;9.30;94.31;102212.44;5066323;28;20623;-78
2022/09/22 05:03:15;;;;;;;6.00;2.63;;;;;;;9.37;94.36;102218.97;5047282;28;20021;-76
2022/09/22 05:05:46;;;;;;;3.10;2.27;;;;;;;9.40;94.02;102209.91;5047752;28;20036;-77
2022/09/22 05:08:18;;;;;;;4.40;2.63;;;;;;;9.52;93.75;102217.75;5036410;28;20084;-76
2022/09/22 05:10:44;;;;;;;2.43;2.10;;;;;;;9.37;93.24;102187.06;5035171;28;20029;-78
2022/09/22 05:13:12;;;;;;;2.67;2.47;;;;;;;9.55;93.54;102208.72;5039383;28;20041;-77
2022/09/22 05:15:39;;;;;;;3.13;2.63;;;;;;;9.62;93.41;102215.22;5030887;28;20558;-77
2022/09/22 05:18:07;;;;;;;3.83;2.60;;;;;;;9.62;92.40;102208.09;5029130;28;20045;-77
2022/09/22 05:20:36;;;;;;;3.17;2.78;;;;;;;9.63;91.62;102204.47;5028852;28;20046;-77
2022/09/22 05:23:07;;;;;;;3.77;3.10;;;;;;;9.70;92.31;102206.63;5027392;28;20087;-78
2022/09/22 05:25:36;;;;;;;3.80;3.13;;;;;;;9.73;91.66;102207.25;5028432;28;20026;-78
2022/09/22 05:28:04;;;;;;;3.33;2.70;;;;;;;9.74;91.58;102208.94;5026492;28;20049;-76
2022/09/22 05:30:29;;;;;;;3.30;2.58;;;;;;;9.76;91.76;102204.34;5014712;28;20033;-77
2022/09/22 05:32:59;;;;;;;3.10;2.47;;;;;;;9.83;91.77;102202.03;5015413;28;20046;-77
2022/09/22 05:35:28;;;;;;;2.58;2.38;;;;;;;9.83;90.86;102202.03;5015304;28;20152;-79
2022/09/22 05:38:14;;;;;;;2.97;2.63;;;;;;;9.88;90.57;102205.19;5014871;28;20064;-76
2022/09/22 05:40:42;;;;;;;3.03;2.30;;;;;;;9.84;90.56;102203.75;5014027;28;20394;-76
2022/09/22 05:43:18;;;;;;;2.83;2.58;;;;;;;9.78;90.08;102198.88;5012847;28;20077;-78
2022/09/22 05:45:43;;;;;;;5.00;2.60;;;;;;;9.79;90.39;102201.41;5014996;28;20037;-77
2022/09/22 05:48:09;;;;;;;3.27;2.20;;;;;;;9.79;90.75;102197.91;5015257;28;20084;-77
2022/09/22 05:50:34;;;;;;;3.23;2.77;;;;;;;9.85;90.82;102205.44;5013296;28;20537;-77
2022/09/22 05:53:11;;;;;;;2.87;2.60;;;;;;;9.91;91.09;102210.25;5014690;28;20101;-78
2022/09/22 05:55:39;;;;;;;3.10;2.43;;;;;;;9.99;91.15;102207.81;5015083;28;20112;-77
2022/09/22 05:58:25;;;;;;;;;;;;;;;10.09;90.06;102207.91;5015673;28;20448;-77
2022/09/22 06:00:51;;;;;;;3.53;2.83;;;;;;;10.05;90.16;102201.16;5014839;28;19917;-77
2022/09/22 06:03:16;;;;;;;3.73;2.57;;;;;;;10.03;89.84;102209.25;5014812;28;20116;-77
2022/09/22 06:05:45;;;;;;;3.13;2.53;;;;;;;9.98;89.98;102191.97;5015475;28;20481;-78
2022/09/22 06:08:11;;;;;;;3.40;3.00;;;;;;;10.03;90.66;102198.63;5015296;28;20038;-78
2022/09/22 06:10:37;;;;;;;3.70;2.70;;;;;;;10.00;90.38;102196.19;5014790;28;20514;-79
2022/09/22 06:13:08;;;;;;;3.87;3.10;;;;;;;10.11;90.86;102201.50;5014425;28;20041;-78
2022/09/22 06:15:40;;;;;;;2.80;2.50;;;;;;;10.15;90.61;102205.63;5013008;28;20052;-77
2022/09/22 06:18:12;;;;;;;5.33;2.40;;;;;;;10.13;90.44;102199.56;5016746;28;20097;-77
2022/09/22 06:20:41;;;;;;;2.30;2.10;;;;;;;10.20;90.53;102203.47;5014233;28;20034;-78
2022/09/22 06:23:14;;;;;;;3.40;2.47;;;;;;;10.27;90.59;102202.94;5014398;28;20045;-78
2022/09/22 06:25:44;;;;;;;2.60;2.37;;;;;;;10.34;90.24;102197.00;5014356;28;20477;-78
2022/09/22 06:28:13;;;;;;;3.50;3.20;;;;;;;10.43;90.36;102206.91;5014490;28;20132;-79
2022/09/22 06:30:39;;;;;;;3.10;2.70;;;;;;;10.55;89.75;102194.38;5014937;28;20068;-77
2022/09/22 06:33:30;;;;;;;4.50;2.87;;;;;;;10.70;89.31;102197.59;5014588;28;20084;-77
2022/09/22 06:36:00;;;;;;;3.47;2.97;;;;;;;10.83;88.97;102206.25;5015137;28;20078;-79
2022/09/22 06:38:30;;;;;;;3.80;3.23;;;;;;;10.92;88.56;102202.78;5013959;28;20042;-77
2022/09/22 06:41:01;;;;;;;4.63;2.97;;;;;;;11.01;87.69;102195.84;5027731;28;20034;-78
2022/09/22 06:43:57;;;;;;;4.80;2.90;;;;;;;11.01;88.16;102201.19;5013737;28;20054;-76
2022/09/22 06:46:27;;;;;;;5.53;2.80;;;;;;;10.98;88.22;102198.75;5028889;28;20136;-77
2022/09/22 06:48:56;;;;;;;3.60;3.20;;;;;;;10.98;87.65;102206.75;5012258;28;20542;-76
2022/09/22 06:51:25;;;;;;;;;;;;;;;11.08;88.08;102197.88;5014030;28;20493;-77
2022/09/22 06:54:02;;;;;;;3.10;2.70;;;;;;;11.14;87.34;102197.31;5013400;28;20396;-77
2022/09/22 06:56:41;;;;;;;3.47;2.57;;;;;;;11.12;87.36;102201.09;5012488;28;20625;-78
2022/09/22 06:59:12;;;;;;;6.70;3.57;;;;;;;11.17;87.26;102198.88;5012703;28;20033;-78
2022/09/22 07:01:42;;;;;;;4.60;3.33;;;;;;;11.22;87.08;102199.31;5013604;28;20034;-79
2022/09/22 07:04:09;;;;;;;5.17;2.77;;;;;;;11.25;86.70;102188.41;5012573;28;20033;-77
2022/09/22 07:06:36;;;;;;;3.33;3.03;;;;;;;11.36;86.86;102201.66;5013144;28;20481;-76
2022/09/22 07:09:03;;;;;;;4.80;3.03;;;;;;;11.41;86.83;102190.59;5013559;28;20046;-76
2022/09/22 07:11:30;;;;;;;3.73;3.33;;;;;;;11.45;86.44;102195.53;5013471;28;20456;-76
2022/09/22 07:13:57;;;;;;;3.33;3.03;;;;;;;11.45;85.66;102179.53;5013584;28;20073;-76
2022/09/22 07:16:24;;;;;;;4.13;2.93;;;;;;;11.51;86.08;102195.97;5013435;28;20038;-76
2022/09/22 07:18:55;;;;;;;6.03;3.33;;;;;;;11.58;85.52;102183.81;5012159;28;20375;-76
2022/09/22 07:21:31;;;;;;;4.87;3.17;;;;;;;11.60;85.16;102187.19;5012864;28;20120;-78
2022/09/22 07:23:57;;;;;;;5.93;3.50;;;;;;;11.67;85.17;102193.66;5013389;28;20061;-79
2022/09/22 07:26:29;;;;;;;7.27;3.70;;;;;;;11.84;85.44;102203.72;5013923;28;20030;-77
2022/09/22 07:29:07;;;;;;;3.50;3.00;;;;;;;11.86;84.53;102188.44;5028339;28;20052;-78
2022/09/22 07:31:33;;;;;;;7.70;3.17;;;;;;;11.90;83.82;102189.84;5012624;28;20046;-77
2022/09/22 07:33:59;;;;;;;5.87;3.00;;;;;;;11.95;84.18;102205.44;5012028;28;20604;-78
2022/09/22 07:36:27;;;;;;;5.67;3.03;;;;;;;11.93;83.92;102205.59;5013553;28;20076;-77
2022/09/22 07:38:56;;;;;;;2.80;2.53;;;;;;;12.08;83.22;102198.84;5016037;28;20053;-77
2022/09/22 07:41:29;;;;;;;4.25;3.00;;;;;;;12.22;82.37;102191.44;5032946;28;20280;-77
2022/09/22 07:45:11;;;;;;;6.60;3.40;;;;;;;12.39;81.55;102202.28;5031824;28;20054;-78
2022/09/22 07:46:45;;;;;;;3.40;2.73;;;;;;;12.44;81.21;102199.22;5017606;28;20460;-76
2022/09/22 07:49:12;;;;;;;2.80;2.57;;;;;;;12.20;81.45;102196.09;5016881;28;20110;-75
2022/09/22 07:51:38;;;;;;;2.50;2.30;;;;;;;11.92;82.31;102201.22;5036462;28;20056;-78
2022/09/22 07:54:06;;;;;;;4.07;3.13;;;;;;;11.88;83.60;102205.16;5036718;28;20014;-79
2022/09/22 07:56:33;;;;;;;3.58;2.33;;;;;;;11.81;82.89;102212.00;5037316;28;20042;-78
2022/09/22 07:59:03;;;;;;;4.10;2.90;;;;;;;11.78;83.53;102206.94;5036594;28;20025;-77
2022/09/22 08:01:31;;;;;;;3.50;2.90;;;;;;;11.85;83.50;102207.22;5036825;28;20069;-79
2022/09/22 08:03:56;;;;;;;5.10;3.37;;;;;;;11.87;83.33;102203.47;5036580;28;20068;-78
2022/09/22 08:06:22;;;;;;;5.33;3.03;;;;;;;11.86;83.42;102203.59;5033781;28;20041;-77
2022/09/22 08:08:52;;;;;;;4.47;3.13;;;;;;;11.85;83.04;102209.88;5029684;28;20044;-77
2022/09/22 08:11:21;;;;;;;3.37;2.67;;;;;;;11.77;83.30;102200.72;5022132;28;20041;-78
2022/09/22 08:13:51;;;;;;;;;;;;;;;11.89;82.71;102209.50;5020113;28;20048;-78
2022/09/22 08:16:17;;;;;;;5.03;2.50;;;;;;;11.81;82.54;102206.66;5026896;28;19952;-79
2022/09/22 08:18:43;;;;;;;2.70;2.50;;;;;;;11.79;82.01;102195.25;5021444;28;20041;-77
2022/09/22 08:21:09;;;;;;;2.93;2.63;;;;;;;11.91;81.55;102196.88;5031787;28;20013;-78
2022/09/22 08:34:17;;;;;;;3.93;2.47;;;;;;;12.02;80.18;102209.25;5683000;22;20037;-79
2022/09/22 08:36:47;;;;;;;5.83;2.40;;;;;;;11.95;80.10;102203.63;5076884;28;20029;-79
2022/09/22 08:39:13;;;;;;;2.57;2.33;;;;;;;11.95;79.72;102203.63;5076583;28;20052;-78
2022/09/22 08:42:17;;;;;;;3.10;2.10;;;;;;;12.04;79.56;102213.47;5074292;28;20048;-79
2022/09/22 08:44:57;;;;;;;2.43;2.23;;;;;;;12.04;78.99;102200.13;5061676;28;20037;-76
2022/09/22 08:53:24;;;;;;;2.30;2.10;;;;;;;12.18;78.26;102192.72;5042112;28;20040;-77
2022/09/22 08:59:16;;;;;;;4.33;2.73;;;;;;;11.92;77.66;102182.53;5070812;28;20067;-79
2022/09/22 09:21:44;;;;;;;2.43;2.20;;;;;;;12.02;75.68;102170.03;5339499;22;20065;-76
2022/09/22 09:24:17;;;;;;;2.97;2.20;;;;;;;12.22;75.59;102180.75;5037410;28;20553;-78
2022/09/22 10:58:52;;;;;;;4.53;2.50;;;;;;;12.03;78.09;102126.34;5815252;23;20081;-77
2022/09/22 11:01:42;;;;;;;2.43;2.20;;;;;;;11.95;78.41;102123.53;5012497;28;20038;-77
2022/09/22 11:04:29;;;;;;;3.77;2.40;;;;;;;11.84;79.26;102134.31;5013499;28;20053;-76
2022/09/22 11:13:57;;;;;;;5.27;2.83;;;;;;;11.69;83.34;102131.16;4990383;28;20128;-78
2022/09/22 11:16:43;;;;;;;4.57;2.83;;;;;;;11.51;85.30;102114.09;5013478;28;20030;-77
2022/09/22 11:19:33;;;;;;;5.23;3.43;;;;;;;11.47;88.26;102132.22;5014037;28;20037;-78
2022/09/22 11:22:17;;;;;;;3.43;2.93;;;;;;;11.41;87.99;102124.75;4996514;28;20103;-77
2022/09/22 11:25:15;;;;;;;4.30;3.30;;;;;;;11.28;89.70;102116.16;5013272;28;20084;-77
2022/09/22 11:27:59;;;;;;;3.10;2.65;;;;;;;11.28;88.50;102124.16;5013312;28;20057;-76
2022/09/22 11:30:32;;;;;;;3.13;2.63;;;;;;;11.22;88.85;102111.34;5013050;28;20045;-76
2022/09/22 11:33:20;;;;;;;3.20;2.77;;;;;;;11.24;90.35;102101.38;5013716;28;20042;-78
2022/09/22 11:35:55;;;;;;;3.92;3.53;;;;;;;11.29;91.08;102115.16;5013372;28;20092;-77
2022/09/22 11:38:45;;;;;;;3.80;2.90;;;;;;;11.33;89.66;102113.91;5011747;28;20593;-77
2022/09/22 11:41:12;;;;;;;5.80;3.00;;;;;;;11.38;91.07;102114.34;5012984;28;20124;-78
2022/09/22 11:43:44;;;;;;;5.33;3.07;;;;;;;11.46;89.09;102113.66;5012648;28;20132;-78
2022/09/22 11:46:41;;;;;;;3.13;2.83;;;;;;;11.55;90.06;102090.66;5012935;28;20050;-76
2022/09/22 11:49:15;;;;;;;3.70;3.10;;;;;;;11.68;88.83;102104.63;5013162;28;20038;-79
2022/09/22 11:51:45;;;;;;;3.43;3.10;;;;;;;11.78;89.20;102097.50;5012533;28;20090;-78
2022/09/22 11:54:45;;;;;;;4.03;2.60;;;;;;;11.92;88.10;102094.44;5013592;28;20033;-77
2022/09/22 11:57:15;;;;;;;7.03;3.00;;;;;;;11.93;88.26;102092.63;5012536;28;20046;-77
2022/09/22 12:00:23;;;;;;;5.77;2.73;;;;;;;12.06;87.91;102091.34;5010968;28;20054;-76
2022/09/22 12:45:21;;;;;;;3.70;2.90;;;;;;;12.03;83.43;102043.56;6036471;22;21164;-76
2022/09/22 12:47:50;;;;;;;3.87;2.73;;;;;;;12.00;83.57;102030.50;4997291;28;20450;-78
2022/09/22 12:50:22;;;;;;;3.17;2.47;;;;;;;12.18;84.12;102061.84;4997089;28;20085;-77
2022/09/22 12:52:49;;;;;;;3.77;2.40;;;;;;;12.15;81.57;102056.78;4997232;28;20136;-78
2022/09/22 12:55:27;;;;;;;2.60;2.40;;;;;;;12.11;81.00;102053.53;4997321;28;20409;-76
2022/09/22 13:24:36;;;;;;;4.20;2.10;;;;;;;12.44;78.15;102012.19;5081513;22;20046;-76
2022/09/22 13:27:27;;;;;;;2.33;2.13;;;;;;;12.48;78.33;102021.59;5036965;28;20068;-77
2022/09/22 13:29:56;;;;;;;5.73;2.57;;;;;;;12.55;79.45;102029.88;5019583;28;20105;-80
2022/09/22 13:32:27;;;;;;;4.20;2.40;;;;;;;12.57;78.84;102012.69;5016920;28;20034;-78
2022/09/22 13:34:53;;;;;;;5.33;2.80;;;;;;;12.16;77.65;101973.84;5016018;28;20036;-72
2022/09/22 13:37:22;;;;;;;2.40;2.20;;;;;;;12.29;78.91;102005.59;4998753;28;20034;-77
2022/09/22 13:39:53;;;;;;;5.30;2.60;;;;;;;12.33;78.37;102009.66;4998157;28;20391;-77
2022/09/22 13:42:31;;;;;;;2.80;2.40;;;;;;;12.34;78.00;102017.53;5015830;28;20033;-77
2022/09/22 13:45:17;;;;;;;2.03;1.83;;;;;;;12.38;77.67;102018.06;5015612;28;20037;-77
2022/09/22 13:47:44;;;;;;;2.63;2.30;;;;;;;12.48;77.64;102010.91;5015886;28;20026;-78
2022/09/22 13:50:15;;;;;;;2.50;2.10;;;;;;;12.42;76.09;102003.44;5015526;28;20038;-78
2022/09/22 13:56:24;;;;;;;3.60;2.20;;;;;;;12.30;77.73;102004.59;5014968;28;20072;-78
2022/09/22 13:58:54;;;;;;;2.33;2.13;;;;;;;12.24;77.93;102013.19;4997553;28;20049;-79
2022/09/22 14:01:22;;;;;;;2.27;2.07;;;;;;;11.99;78.22;101999.44;5015049;28;20147;-77
2022/09/22 14:03:50;;;;;;;2.65;1.92;;;;;;;11.93;77.19;102018.69;4997716;28;20038;-79
2022/09/22 14:06:19;;;;;;;2.22;2.08;;;;;;;11.84;79.10;102003.50;4997135;28;20077;-78
2022/09/22 14:08:47;;;;;;;2.30;2.10;;;;;;;11.86;79.24;102014.91;5014885;28;20038;-77
2022/09/22 14:11:24;;;;;;;2.40;2.20;;;;;;;11.85;79.69;102015.88;5014715;28;20026;-75
2022/09/22 14:13:55;;;;;;;2.63;2.43;;;;;;;11.73;79.79;102023.16;5014933;28;20053;-75
2022/09/22 14:16:48;;;;;;;4.00;2.80;;;;;;;11.62;80.69;102014.44;5013393;28;20038;-77
2022/09/22 14:19:18;;;;;;;3.93;2.30;;;;;;;11.54;80.95;102016.94;5014318;28;20034;-77
2022/09/22 14:21:51;;;;;;;4.87;2.27;;;;;;;11.45;82.05;102016.78;5014089;28;20038;-74
2022/09/22 14:24:20;;;;;;;5.33;2.60;;;;;;;11.35;82.19;102013.28;5014515;28;20108;-76
2022/09/22 14:26:50;;;;;;;3.17;2.60;;;;;;;11.34;82.85;102016.06;5013295;28;20046;-78
2022/09/22 14:29:37;;;;;;;3.30;2.40;;;;;;;11.32;84.07;102018.03;5014535;28;20041;-76
2022/09/22 14:32:18;;;;;;;3.13;2.83;;;;;;;11.29;83.56;102015.66;5014113;28;20033;-76
2022/09/22 14:34:50;;;;;;;2.97;2.50;;;;;;;11.25;82.70;102023.06;5014800;28;20083;-75
2022/09/22 14:37:42;;;;;;;2.93;2.40;;;;;;;11.26;82.18;102018.56;5014116;28;20085;-76
2022/09/22 14:40:19;;;;;;;3.90;2.70;;;;;;;11.25;82.79;102012.38;5007695;28;20049;-72
2022/09/22 14:43:07;;;;;;;3.87;2.57;;;;;;;11.23;82.26;102016.16;5015642;28;20660;-77
2022/09/22 14:46:10;;;;;;;3.50;2.57;;;;;;;11.17;83.75;102015.75;5015020;28;20034;-77
2022/09/22 14:49:25;;;;;;;2.67;2.47;;;;;;;11.18;82.68;102016.59;4935028;29;20102;-75
2022/09/22 14:55:34;;;;;;;3.00;2.80;;;;;;;11.16;83.46;102011.38;4938903;29;20422;-77
2022/09/22 14:58:21;;;;;;;3.93;2.47;;;;;;;11.19;84.18;102020.94;4954994;28;20035;-75
2022/09/22 15:03:53;;;;;;;3.97;2.97;;;;;;;11.07;82.79;102014.03;5014002;28;20037;-76
2022/09/22 15:06:19;;;;;;;2.87;2.40;;;;;;;11.01;82.41;102014.59;5013766;28;20046;-77
2022/09/22 15:08:50;;;;;;;6.23;2.60;;;;;;;11.01;82.69;102014.59;5013470;28;20084;-78
2022/09/22 15:11:17;;;;;;;3.60;3.00;;;;;;;10.97;83.57;102023.78;5013550;28;20125;-77
2022/09/22 15:13:49;;;;;;;5.07;2.50;;;;;;;10.93;83.38;102022.38;5013349;28;20405;-77
2022/09/22 15:16:42;;;;;;;11.23;3.83;;;;;;;10.92;83.77;102024.22;5013540;28;20037;-78
2022/09/22 15:19:13;;;;;;;3.00;2.23;;;;;;;10.83;84.20;102023.19;5012079;28;20115;-75
2022/09/22 15:21:45;;;;;;;;;;;;;;;10.88;84.48;102024.63;5013857;28;20073;-79
2022/09/22 15:24:39;;;;;;;3.67;2.80;;;;;;;10.83;84.85;102028.53;5013816;28;19921;-78
2022/09/22 15:27:39;;;;;;;3.60;3.20;;;;;;;10.81;84.95;102033.16;5013546;28;20339;-76
2022/09/22 15:30:34;;;;;;;6.73;3.13;;;;;;;10.80;85.65;102028.78;5011431;28;20377;-76
2022/09/22 15:33:12;;;;;;;3.50;3.13;;;;;;;10.76;85.33;102032.72;4974810;28;20046;-80
2022/09/22 15:35:39;;;;;;;6.17;2.73;;;;;;;10.69;85.33;102028.03;5012339;28;20091;-73
2022/09/22 15:38:28;;;;;;;5.87;2.83;;;;;;;10.69;85.93;102034.19;5012795;28;20041;-77